Time;durP1;ratioP1;P1;durP2;ratioP2;P2;SDS_P1;SDS_P2;PMS_P1;PMS_P2;Temp;Humidity;BMP_temperature;BMP_pressure;BME280_temperature;BME280_humidity;BME280_pressure;Samples;Min_cycle;Max_cycle;Signal;HPM_P1;HPM_P2
2022/01/09 00:00:19;;;;;;;8.75;4.85;;;5.20;99.90;;;;;;5023929;28;20057;-88
2022/01/09 00:02:44;;;;;;;8.48;4.97;;;5.20;99.90;;;;;;5006854;28;20053;-88
2022/01/09 00:05:12;;;;;;;7.80;4.13;;;5.20;99.90;;;;;;5016814;28;20045;-88
2022/01/09 00:07:38;;;;;;;8.15;4.60;;;5.20;99.90;;;;;;5026447;28;20045;-88
2022/01/09 00:10:06;;;;;;;7.72;4.10;;;5.20;99.90;;;;;;5002101;28;20034;-88
2022/01/09 00:12:32;;;;;;;8.23;4.55;;;5.20;99.90;;;;;;4999351;28;20041;-88
2022/01/09 00:14:58;;;;;;;8.30;4.68;;;5.20;99.90;;;;;;5021170;28;20030;-88
2022/01/09 00:17:23;;;;;;;8.70;4.78;;;5.20;99.90;;;;;;5027624;28;20136;-88
2022/01/09 00:19:49;;;;;;;7.93;4.38;;;5.20;99.90;;;;;;5008824;28;20049;-88
2022/01/09 00:22:17;;;;;;;8.38;4.63;;;5.20;99.90;;;;;;5007069;28;20046;-88
2022/01/09 00:24:43;;;;;;;7.95;4.10;;;5.20;99.90;;;;;;4977047;28;20038;-88
2022/01/09 00:27:08;;;;;;;8.10;4.50;;;5.20;99.90;;;;;;5013311;28;20033;-89
2022/01/09 00:29:34;;;;;;;8.10;4.22;;;5.20;99.90;;;;;;5028085;28;20041;-88
2022/01/09 00:31:59;;;;;;;9.20;4.50;;;5.20;99.90;;;;;;5027626;28;20033;-88
2022/01/09 00:34:25;;;;;;;7.78;4.32;;;5.20;99.90;;;;;;5029199;28;20509;-88
2022/01/09 00:36:50;;;;;;;7.60;4.28;;;5.20;99.90;;;;;;5028748;28;20076;-88
2022/01/09 00:39:16;;;;;;;7.47;4.30;;;5.20;99.90;;;;;;5013203;28;20120;-88
2022/01/09 00:41:42;;;;;;;7.47;4.20;;;5.20;99.90;;;;;;5008234;28;20060;-89
2022/01/09 00:44:08;;;;;;;7.80;4.50;;;5.20;99.90;;;;;;5013320;28;20033;-88
2022/01/09 00:46:33;;;;;;;9.50;4.70;;;5.20;99.90;;;;;;5006207;28;20483;-88
2022/01/09 00:49:00;;;;;;;7.90;4.65;;;5.10;99.90;;;;;;4993308;28;20164;-88
2022/01/09 00:51:26;;;;;;;8.77;4.78;;;5.10;99.90;;;;;;5000041;28;20076;-88
2022/01/09 00:53:52;;;;;;;8.23;4.93;;;5.10;99.90;;;;;;5032679;28;20038;-88
2022/01/09 00:56:17;;;;;;;8.65;4.90;;;5.10;99.90;;;;;;5014303;28;20172;-88
2022/01/09 00:58:43;;;;;;;9.05;4.95;;;5.20;99.90;;;;;;4996663;28;20088;-88
2022/01/09 01:01:09;;;;;;;8.25;4.88;;;5.20;99.90;;;;;;5013355;28;20030;-88
2022/01/09 01:03:34;;;;;;;8.02;4.90;;;5.10;99.90;;;;;;5022450;28;20045;-88
2022/01/09 01:06:00;;;;;;;8.13;4.75;;;5.20;99.90;;;;;;5016396;28;20533;-88
2022/01/09 01:08:26;;;;;;;7.97;5.18;;;5.20;99.90;;;;;;4997123;28;20038;-88
2022/01/09 01:10:52;;;;;;;8.55;4.97;;;5.20;99.90;;;;;;5012819;28;20403;-88
2022/01/09 01:13:17;;;;;;;8.25;4.93;;;5.10;99.90;;;;;;5015699;28;20471;-88
2022/01/09 01:15:43;;;;;;;9.50;4.95;;;5.20;99.90;;;;;;4996749;28;20049;-88
2022/01/09 01:18:09;;;;;;;8.23;5.07;;;5.20;99.90;;;;;;5012528;28;20022;-88
2022/01/09 01:20:34;;;;;;;8.25;5.28;;;5.20;99.90;;;;;;5012942;28;20044;-88
2022/01/09 01:23:00;;;;;;;8.88;5.10;;;5.10;99.90;;;;;;5016957;28;20050;-88
2022/01/09 01:25:26;;;;;;;8.30;5.80;;;5.10;99.90;;;;;;5016149;28;20064;-88
2022/01/09 01:27:52;;;;;;;9.32;6.40;;;5.10;99.90;;;;;;5009174;28;20042;-88
2022/01/09 01:30:17;;;;;;;10.52;7.10;;;5.10;99.90;;;;;;5017685;28;20521;-88
2022/01/09 01:32:44;;;;;;;12.10;7.60;;;5.10;99.90;;;;;;4996147;28;20057;-88
2022/01/09 01:35:10;;;;;;;10.57;7.55;;;5.10;99.90;;;;;;5023776;28;20121;-89
2022/01/09 01:37:41;;;;;;;9.57;7.20;;;5.10;99.90;;;;;;5030465;28;20380;-89
2022/01/09 01:40:11;;;;;;;9.95;7.85;;;5.10;99.90;;;;;;5032799;28;20085;-88
2022/01/09 01:42:37;;;;;;;9.70;7.75;;;5.10;99.90;;;;;;5032728;28;20037;-88
2022/01/09 01:45:03;;;;;;;10.60;8.35;;;5.10;99.90;;;;;;5015678;28;20411;-88
2022/01/09 01:47:29;;;;;;;11.93;8.88;;;5.10;99.90;;;;;;5032686;28;20103;-88
2022/01/09 01:49:55;;;;;;;11.93;9.40;;;5.10;99.90;;;;;;5030146;28;20510;-88
2022/01/09 01:52:30;;;;;;;11.48;9.68;;;5.20;99.90;;;;;;5015141;28;20049;-89
2022/01/09 01:54:56;;;;;;;11.45;9.32;;;5.10;99.90;;;;;;5000071;28;20046;-88
2022/01/09 01:57:21;;;;;;;11.70;9.93;;;5.10;99.90;;;;;;5028248;28;20563;-88
2022/01/09 01:59:47;;;;;;;13.60;10.80;;;5.20;99.90;;;;;;5031787;28;20033;-88
2022/01/09 02:02:12;;;;;;;12.98;11.48;;;5.10;99.90;;;;;;5003009;28;20495;-88
2022/01/09 02:04:38;;;;;;;14.15;12.40;;;5.10;99.90;;;;;;4995735;28;20033;-88
2022/01/09 02:07:04;;;;;;;14.55;13.02;;;5.10;99.90;;;;;;4996274;28;20068;-88
2022/01/09 02:09:30;;;;;;;17.20;15.38;;;5.10;99.90;;;;;;4993127;28;20143;-88
2022/01/09 02:11:56;;;;;;;16.25;13.80;;;5.10;99.90;;;;;;4995415;28;20117;-88
2022/01/09 02:14:22;;;;;;;16.35;14.23;;;5.10;99.90;;;;;;4994144;28;20127;-88
2022/01/09 02:16:51;;;;;;;16.52;14.80;;;5.10;99.90;;;;;;4995483;28;20042;-88
2022/01/09 02:19:20;;;;;;;15.60;13.95;;;5.10;99.90;;;;;;5011218;28;20103;-88
2022/01/09 02:21:45;;;;;;;15.45;13.65;;;5.10;99.90;;;;;;5012800;28;20049;-88
2022/01/09 02:24:13;;;;;;;15.73;13.93;;;5.10;99.90;;;;;;4996686;28;20132;-88
2022/01/09 02:26:40;;;;;;;16.85;14.57;;;5.10;99.90;;;;;;5038648;28;20050;-88
2022/01/09 02:29:06;;;;;;;17.02;15.20;;;5.10;99.90;;;;;;5004692;28;20129;-88
2022/01/09 02:31:33;;;;;;;17.20;14.65;;;5.10;99.90;;;;;;5027888;28;20381;-88
2022/01/09 02:33:59;;;;;;;17.85;14.90;;;5.10;99.90;;;;;;4994160;28;20046;-88
2022/01/09 02:36:24;;;;;;;17.50;14.45;;;5.10;99.90;;;;;;5009524;28;20422;-88
2022/01/09 02:38:50;;;;;;;16.55;12.95;;;5.10;99.90;;;;;;5011378;28;20076;-88
2022/01/09 02:41:16;;;;;;;16.23;13.65;;;5.10;99.90;;;;;;4995115;28;20440;-88
2022/01/09 02:43:42;;;;;;;16.40;13.70;;;5.10;99.90;;;;;;4994561;28;20046;-88
2022/01/09 02:48:36;;;;;;;16.15;13.15;;;5.10;99.90;;;;;;5011762;28;20144;-88
2022/01/09 02:51:09;;;;;;;17.08;13.70;;;5.10;99.90;;;;;;5010813;28;20053;-88
2022/01/09 02:53:36;;;;;;;16.63;12.80;;;5.10;99.90;;;;;;4991087;28;20046;-88
2022/01/09 02:56:03;;;;;;;16.52;12.43;;;5.10;99.90;;;;;;4991366;28;20065;-88
2022/01/09 02:58:30;;;;;;;16.30;12.82;;;5.10;99.90;;;;;;5008490;28;20053;-88
2022/01/09 03:00:56;;;;;;;15.43;12.00;;;5.20;99.90;;;;;;4993147;28;20045;-88
2022/01/09 03:03:22;;;;;;;15.93;11.88;;;5.20;99.90;;;;;;5011137;28;20044;-88
2022/01/09 03:05:47;;;;;;;14.77;11.23;;;5.20;99.90;;;;;;4994556;28;20491;-88
2022/01/09 03:08:14;;;;;;;15.90;12.32;;;5.20;99.90;;;;;;4993558;28;20037;-88
2022/01/09 03:10:40;;;;;;;16.80;12.07;;;5.20;99.90;;;;;;4995020;28;20399;-88
2022/01/09 03:13:06;;;;;;;16.50;12.82;;;5.20;99.90;;;;;;5008978;28;20503;-88
2022/01/09 03:15:33;;;;;;;16.20;11.45;;;5.20;99.90;;;;;;5010673;28;20037;-88
2022/01/09 03:17:59;;;;;;;16.40;12.15;;;5.20;99.90;;;;;;4992166;28;21576;-88
2022/01/09 03:20:26;;;;;;;17.05;12.52;;;5.20;99.90;;;;;;4980365;28;20069;-88
2022/01/09 03:22:53;;;;;;;17.05;12.80;;;5.30;99.90;;;;;;5007585;28;20034;-88
2022/01/09 03:25:19;;;;;;;16.88;12.82;;;5.30;99.90;;;;;;5013174;28;20125;-88
2022/01/09 03:27:49;;;;;;;17.58;12.73;;;5.30;99.90;;;;;;4995536;28;20125;-88
2022/01/09 03:30:16;;;;;;;17.33;11.90;;;5.30;99.90;;;;;;5010970;28;20558;-87
2022/01/09 03:32:42;;;;;;;19.50;12.15;;;5.30;99.90;;;;;;5010692;28;20057;-88
2022/01/09 03:35:14;;;;;;;18.33;10.45;;;5.40;99.90;;;;;;5010663;28;20396;-88
2022/01/09 03:37:43;;;;;;;16.95;9.20;;;5.40;99.90;;;;;;4994273;28;20045;-88
2022/01/09 03:40:12;;;;;;;18.17;8.77;;;5.50;99.90;;;;;;4988437;28;20410;-88
2022/01/09 03:42:38;;;;;;;19.00;8.30;;;5.50;99.90;;;;;;4991196;28;20076;-88
2022/01/09 03:45:05;;;;;;;16.42;8.00;;;5.50;99.90;;;;;;5009410;28;20484;-88
2022/01/09 03:47:31;;;;;;;19.50;7.28;;;5.60;99.90;;;;;;5026931;28;20129;-88
2022/01/09 03:49:56;;;;;;;17.67;6.68;;;5.60;99.90;;;;;;5008563;28;20124;-89
2022/01/09 03:52:27;;;;;;;18.73;6.88;;;5.70;99.90;;;;;;5009737;28;20045;-88
2022/01/09 03:54:54;;;;;;;24.77;6.38;;;5.70;99.90;;;;;;5009459;28;20037;-88
2022/01/09 03:57:20;;;;;;;19.20;5.82;;;5.80;99.90;;;;;;5008421;28;20479;-88
2022/01/09 03:59:45;;;;;;;23.30;5.50;;;5.80;99.90;;;;;;4974750;28;20046;-88
2022/01/09 04:02:11;;;;;;;23.17;5.85;;;5.90;99.90;;;;;;4989531;28;20526;-88
2022/01/09 04:04:37;;;;;;;23.35;4.88;;;6.00;99.90;;;;;;4993573;28;20045;-88
2022/01/09 04:07:03;;;;;;;22.85;5.00;;;6.00;99.90;;;;;;4992451;28;20064;-88
2022/01/09 04:09:38;;;;;;;27.10;5.55;;;6.00;99.90;;;;;;4993715;28;20038;-88
2022/01/09 04:12:14;;;;;;;25.85;5.53;;;6.10;99.90;;;;;;4981192;28;20038;-88
2022/01/09 04:14:42;;;;;;;39.92;6.45;;;6.20;99.90;;;;;;5003664;28;20126;-88
2022/01/09 04:17:16;;;;;;;32.65;5.30;;;6.20;99.90;;;;;;5009607;28;20034;-88
2022/01/09 04:19:42;;;;;;;33.90;6.45;;;6.30;99.90;;;;;;4975626;28;20034;-89
2022/01/09 04:22:08;;;;;;;35.17;5.93;;;6.30;99.90;;;;;;4983516;28;20038;-88
2022/01/09 04:24:33;;;;;;;37.70;5.93;;;6.40;99.90;;;;;;5026294;28;20041;-88
2022/01/09 04:26:59;;;;;;;33.08;6.25;;;6.40;99.90;;;;;;5030424;28;20145;-88
2022/01/09 04:29:25;;;;;;;29.63;5.85;;;6.40;99.90;;;;;;4997767;28;20045;-88
2022/01/09 04:31:50;;;;;;;34.35;6.05;;;6.40;99.90;;;;;;5028481;28;20030;-88
2022/01/09 04:34:16;;;;;;;33.20;6.30;;;6.40;99.90;;;;;;4983364;28;20049;-88
2022/01/09 04:36:41;;;;;;;38.80;6.78;;;6.50;99.90;;;;;;5013612;28;20128;-88
2022/01/09 04:39:07;;;;;;;37.50;5.90;;;6.40;99.90;;;;;;4997427;28;20141;-88
2022/01/09 04:41:32;;;;;;;36.53;6.20;;;6.50;99.90;;;;;;4997310;28;20076;-88
2022/01/09 04:43:58;;;;;;;35.35;6.45;;;6.50;99.90;;;;;;4995089;28;20041;-89
2022/01/09 04:46:32;;;;;;;36.17;6.13;;;6.50;99.90;;;;;;5013811;28;20042;-88
2022/01/09 04:48:58;;;;;;;37.03;6.78;;;6.50;99.90;;;;;;5005608;28;20042;-88
2022/01/09 04:51:23;;;;;;;32.63;6.57;;;6.50;99.90;;;;;;4997481;28;20044;-88
2022/01/09 04:53:49;;;;;;;34.88;5.85;;;6.50;99.90;;;;;;5010951;28;20546;-88
2022/01/09 04:56:15;;;;;;;25.08;5.70;;;6.60;99.90;;;;;;4996940;28;20041;-88
2022/01/09 04:58:41;;;;;;;30.83;5.13;;;6.50;99.90;;;;;;5012753;28;20185;-88
2022/01/09 05:01:06;;;;;;;27.52;5.72;;;6.50;99.90;;;;;;4996531;28;20045;-88
2022/01/09 05:03:32;;;;;;;28.50;4.55;;;6.50;99.90;;;;;;5011643;28;20045;-88
2022/01/09 05:05:57;;;;;;;29.10;5.80;;;6.60;99.90;;;;;;4984899;28;20068;-89
2022/01/09 05:08:23;;;;;;;27.55;5.05;;;6.50;99.90;;;;;;4978445;28;20129;-89
2022/01/09 05:10:48;;;;;;;35.10;5.30;;;6.60;99.90;;;;;;4996126;28;20038;-88
2022/01/09 05:13:14;;;;;;;25.17;5.35;;;6.60;99.90;;;;;;5025692;28;20133;-89
2022/01/09 05:15:40;;;;;;;25.08;4.72;;;6.50;99.90;;;;;;5001050;28;20034;-89
2022/01/09 05:18:12;;;;;;;28.90;4.50;;;6.60;99.90;;;;;;5013069;28;20087;-88
2022/01/09 05:20:38;;;;;;;27.13;3.72;;;6.60;99.90;;;;;;5012502;28;20096;-88
2022/01/09 05:23:03;;;;;;;32.90;5.15;;;6.50;99.90;;;;;;4996889;28;20046;-88
2022/01/09 05:25:29;;;;;;;32.03;4.70;;;6.50;99.90;;;;;;5007670;28;20173;-90
2022/01/09 05:27:55;;;;;;;25.63;4.80;;;6.50;99.90;;;;;;5008432;28;20042;-88
2022/01/09 05:30:20;;;;;;;27.60;4.32;;;6.60;99.90;;;;;;4993720;28;20038;-89
2022/01/09 05:32:46;;;;;;;25.17;5.18;;;6.60;99.90;;;;;;4976630;28;20131;-88
2022/01/09 05:35:12;;;;;;;23.50;4.32;;;6.60;99.90;;;;;;4977104;28;20030;-88
2022/01/09 05:37:38;;;;;;;21.90;3.90;;;6.50;99.90;;;;;;5002146;28;20088;-88
2022/01/09 05:40:04;;;;;;;22.42;4.60;;;6.50;99.90;;;;;;5012041;28;20068;-88
2022/01/09 05:42:29;;;;;;;25.75;5.80;;;6.50;99.90;;;;;;5012549;28;20038;-88
2022/01/09 05:44:55;;;;;;;27.60;4.28;;;6.50;99.90;;;;;;5012003;28;20136;-88
2022/01/09 05:47:20;;;;;;;20.52;3.97;;;6.50;99.90;;;;;;4998817;28;20042;-88
2022/01/09 05:49:46;;;;;;;24.15;4.28;;;6.50;99.90;;;;;;4996388;28;20792;-88
2022/01/09 05:52:12;;;;;;;20.77;3.72;;;6.50;99.90;;;;;;4995615;28;20042;-88
2022/01/09 05:54:37;;;;;;;24.63;4.80;;;6.50;99.90;;;;;;4995299;28;20044;-88
2022/01/09 05:57:03;;;;;;;20.13;3.38;;;6.40;99.90;;;;;;4994561;28;20060;-89
2022/01/09 05:59:29;;;;;;;21.13;3.65;;;6.40;99.90;;;;;;4995616;28;20045;-89
2022/01/09 06:01:56;;;;;;;21.55;3.38;;;6.40;99.90;;;;;;4991949;28;20092;-88
2022/01/09 06:04:22;;;;;;;22.35;3.90;;;6.40;99.90;;;;;;5011990;28;20120;-88
2022/01/09 06:06:49;;;;;;;19.40;3.88;;;6.40;99.90;;;;;;5011503;28;20125;-88
2022/01/09 06:09:15;;;;;;;16.00;2.90;;;6.30;99.90;;;;;;4995450;28;20038;-88
2022/01/09 06:11:41;;;;;;;21.48;3.35;;;6.30;99.90;;;;;;5012268;28;20104;-88
2022/01/09 06:14:06;;;;;;;19.50;5.15;;;6.30;99.90;;;;;;4994701;28;20081;-88
2022/01/09 06:16:32;;;;;;;20.42;2.90;;;6.30;99.90;;;;;;4994991;28;20033;-88
2022/01/09 06:18:58;;;;;;;21.23;3.65;;;6.30;99.90;;;;;;5026289;28;20041;-88
2022/01/09 06:21:26;;;;;;;18.27;3.25;;;6.30;99.90;;;;;;4995660;28;20042;-88
2022/01/09 06:23:52;;;;;;;18.20;3.67;;;6.30;99.90;;;;;;4995205;28;20042;-88
2022/01/09 06:26:18;;;;;;;21.65;3.65;;;6.20;99.90;;;;;;5028497;28;20057;-88
2022/01/09 06:28:43;;;;;;;19.27;3.55;;;6.20;99.90;;;;;;5024090;28;20034;-88
2022/01/09 06:31:09;;;;;;;21.42;3.55;;;6.20;99.90;;;;;;4984412;28;20084;-88
2022/01/09 06:33:35;;;;;;;18.83;3.13;;;6.20;99.90;;;;;;5025843;28;20045;-88
2022/01/09 06:36:01;;;;;;;17.85;3.35;;;6.20;99.90;;;;;;4993549;28;20061;-88
2022/01/09 06:38:27;;;;;;;20.90;3.78;;;6.20;99.90;;;;;;5009850;28;20034;-88
2022/01/09 06:40:52;;;;;;;19.45;2.80;;;6.20;99.90;;;;;;4991870;28;20030;-87
2022/01/09 06:43:18;;;;;;;16.67;3.40;;;6.20;99.90;;;;;;5000468;28;20121;-88
2022/01/09 06:45:44;;;;;;;18.85;3.53;;;6.20;99.90;;;;;;5007288;28;20112;-88
2022/01/09 06:48:09;;;;;;;22.30;3.08;;;6.20;99.90;;;;;;4984139;28;20033;-88
2022/01/09 06:50:35;;;;;;;15.80;3.03;;;6.20;99.90;;;;;;5010037;28;20041;-88
2022/01/09 06:53:01;;;;;;;18.77;3.88;;;6.20;99.90;;;;;;4986482;28;20418;-88
2022/01/09 06:55:26;;;;;;;17.60;2.45;;;6.20;99.90;;;;;;4994088;28;20041;-88
2022/01/09 06:57:53;;;;;;;16.10;3.28;;;6.20;99.90;;;;;;5024834;28;20041;-88
2022/01/09 07:00:20;;;;;;;21.42;3.35;;;6.10;99.90;;;;;;4999442;28;20092;-88
2022/01/09 07:02:45;;;;;;;16.65;2.72;;;6.10;99.90;;;;;;5005970;28;20049;-88
2022/01/09 07:05:12;;;;;;;12.40;2.83;;;6.10;99.90;;;;;;5010368;28;20045;-88
2022/01/09 07:07:38;;;;;;;16.02;2.88;;;6.10;99.90;;;;;;5008923;28;20121;-88
2022/01/09 07:10:04;;;;;;;16.38;3.08;;;6.10;99.90;;;;;;4994195;28;20129;-88
2022/01/09 07:12:30;;;;;;;15.77;2.67;;;6.10;99.90;;;;;;4984683;28;20034;-88
2022/01/09 07:14:56;;;;;;;15.30;3.03;;;6.00;99.90;;;;;;5008950;28;20042;-88
2022/01/09 07:17:21;;;;;;;21.05;2.88;;;6.00;99.90;;;;;;4983683;28;20029;-88
2022/01/09 07:19:47;;;;;;;17.30;2.58;;;6.00;99.90;;;;;;4988128;28;20037;-88
2022/01/09 07:22:12;;;;;;;14.55;2.63;;;6.00;99.90;;;;;;4993798;28;20038;-88
2022/01/09 07:24:38;;;;;;;11.85;2.30;;;5.90;99.90;;;;;;4993669;28;20048;-89
2022/01/09 07:27:04;;;;;;;14.48;2.30;;;6.00;99.90;;;;;;5010483;28;20038;-88
2022/01/09 07:29:30;;;;;;;12.65;2.13;;;5.90;99.90;;;;;;4992386;28;20506;-88
2022/01/09 07:31:55;;;;;;;14.23;2.97;;;5.90;99.90;;;;;;4985814;28;20038;-88
2022/01/09 07:34:21;;;;;;;15.25;2.08;;;5.90;99.90;;;;;;5009311;28;20041;-88
2022/01/09 07:36:48;;;;;;;15.05;3.10;;;5.90;99.90;;;;;;4993096;28;20087;-88
2022/01/09 07:39:14;;;;;;;12.45;2.15;;;5.90;99.90;;;;;;5025036;28;20124;-89
2022/01/09 07:41:41;;;;;;;11.23;1.63;;;5.80;99.90;;;;;;5001697;28;20041;-88
2022/01/09 07:44:07;;;;;;;14.23;2.13;;;5.80;99.90;;;;;;5010299;28;20553;-89
2022/01/09 07:46:32;;;;;;;10.18;1.80;;;5.80;99.90;;;;;;5011211;28;20042;-89
2022/01/09 07:48:59;;;;;;;8.23;1.75;;;5.80;99.90;;;;;;4994100;28;20046;-89
2022/01/09 07:51:24;;;;;;;13.63;2.30;;;5.80;99.90;;;;;;5005084;28;20042;-89
2022/01/09 07:53:50;;;;;;;9.15;2.10;;;5.80;99.90;;;;;;4996670;28;20068;-89
2022/01/09 07:56:16;;;;;;;8.30;1.95;;;5.70;99.90;;;;;;4993006;28;20038;-88
2022/01/09 07:58:41;;;;;;;11.38;2.38;;;5.70;99.90;;;;;;4991305;28;20472;-89
2022/01/09 08:01:07;;;;;;;8.13;1.40;;;5.70;99.90;;;;;;4991011;28;20038;-89
2022/01/09 08:03:34;;;;;;;9.57;1.92;;;5.70;99.90;;;;;;4988046;28;20044;-89
2022/01/09 08:05:59;;;;;;;11.02;2.00;;;5.70;99.90;;;;;;4992264;28;20124;-89
2022/01/09 08:08:25;;;;;;;7.40;1.45;;;5.60;99.90;;;;;;4992519;28;20148;-88
2022/01/09 08:10:52;;;;;;;15.57;2.88;;;5.70;99.90;;;;;;4992380;28;20037;-88
2022/01/09 08:13:18;;;;;;;13.82;1.80;;;5.70;99.90;;;;;;4990915;28;20612;-88
2022/01/09 08:15:44;;;;;;;11.38;2.15;;;5.70;99.90;;;;;;5008729;28;20403;-88
2022/01/09 08:18:10;;;;;;;12.75;2.42;;;5.70;99.90;;;;;;4991193;28;20499;-88
2022/01/09 08:20:35;;;;;;;9.70;1.50;;;5.70;99.90;;;;;;5007648;28;20038;-89
2022/01/09 08:23:01;;;;;;;13.07;2.05;;;5.70;99.90;;;;;;4992668;28;20413;-88
2022/01/09 08:25:27;;;;;;;11.27;2.03;;;5.70;99.90;;;;;;5025158;28;20406;-88
2022/01/09 08:27:53;;;;;;;11.00;3.22;;;5.70;99.90;;;;;;4993106;28;20045;-88
2022/01/09 08:30:20;;;;;;;10.77;2.50;;;5.70;99.90;;;;;;5009426;28;20449;-88
2022/01/09 08:32:45;;;;;;;7.10;1.55;;;5.70;99.90;;;;;;5006842;28;20048;-88
2022/01/09 08:35:11;;;;;;;11.05;2.60;;;5.70;99.90;;;;;;4992103;28;20090;-88
2022/01/09 08:37:41;;;;;;;12.63;2.10;;;5.70;99.90;;;;;;5012772;28;20069;-87
2022/01/09 08:40:09;;;;;;;11.95;1.98;;;5.70;99.90;;;;;;4994650;28;20049;-88
2022/01/09 08:42:34;;;;;;;10.55;1.85;;;5.70;99.90;;;;;;5003860;28;20041;-88
2022/01/09 08:45:00;;;;;;;9.57;2.45;;;5.70;99.90;;;;;;5006393;28;20043;-88
2022/01/09 08:47:26;;;;;;;11.77;1.77;;;5.70;99.90;;;;;;4980245;28;20487;-88
2022/01/09 08:49:51;;;;;;;12.25;2.30;;;5.60;99.90;;;;;;5009993;28;20034;-88
2022/01/09 08:52:17;;;;;;;13.55;3.10;;;5.60;99.90;;;;;;4983037;28;20042;-88
2022/01/09 08:54:42;;;;;;;10.15;1.83;;;5.60;99.90;;;;;;5004401;28;20036;-88
2022/01/09 08:57:08;;;;;;;12.10;2.95;;;5.70;99.90;;;;;;4999801;28;20389;-88
2022/01/09 08:59:33;;;;;;;16.33;2.70;;;5.70;99.90;;;;;;4979081;28;20118;-88
2022/01/09 09:01:59;;;;;;;11.32;2.30;;;5.70;99.90;;;;;;4983983;28;20414;-88
2022/01/09 09:04:25;;;;;;;10.85;2.17;;;5.70;99.90;;;;;;4983593;28;20029;-88
2022/01/09 09:06:53;;;;;;;11.05;2.80;;;5.70;99.90;;;;;;4991607;28;20161;-88
2022/01/09 09:09:18;;;;;;;11.73;2.55;;;5.70;99.90;;;;;;4990146;28;20049;-88
2022/01/09 09:11:44;;;;;;;10.77;1.90;;;5.80;99.90;;;;;;4993601;28;20046;-88
2022/01/09 09:14:10;;;;;;;9.43;1.50;;;5.80;99.90;;;;;;4991125;28;20041;-88
2022/01/09 09:16:35;;;;;;;13.98;2.50;;;5.80;99.90;;;;;;5010334;28;20061;-88
2022/01/09 09:19:01;;;;;;;15.95;2.90;;;5.80;99.90;;;;;;4995946;28;20038;-88
2022/01/09 09:21:27;;;;;;;9.23;2.05;;;5.80;99.90;;;;;;4994598;28;20042;-89
2022/01/09 09:23:55;;;;;;;17.05;2.55;;;5.80;99.90;;;;;;4995461;28;20046;-88
2022/01/09 09:26:21;;;;;;;11.10;1.83;;;5.80;99.90;;;;;;4987675;28;20069;-88
2022/01/09 09:28:47;;;;;;;13.77;1.95;;;5.80;99.90;;;;;;4988783;28;20042;-88
2022/01/09 09:31:13;;;;;;;14.57;2.30;;;5.90;99.90;;;;;;5015517;28;20042;-88
2022/01/09 09:33:39;;;;;;;15.75;2.78;;;5.90;99.90;;;;;;4988272;28;20044;-88
2022/01/09 09:36:05;;;;;;;16.65;2.70;;;5.90;99.90;;;;;;5016235;28;20037;-88
2022/01/09 09:38:32;;;;;;;12.60;2.75;;;5.90;99.90;;;;;;4993090;28;20034;-88
2022/01/09 09:40:58;;;;;;;13.25;2.40;;;5.90;99.90;;;;;;4993404;28;20713;-87
2022/01/09 09:43:24;;;;;;;11.35;2.22;;;5.90;99.90;;;;;;4992913;28;20549;-87
2022/01/09 09:45:51;;;;;;;14.95;3.00;;;5.90;99.90;;;;;;4994409;28;20034;-88
2022/01/09 09:48:17;;;;;;;10.73;2.25;;;5.90;99.90;;;;;;5008722;28;20058;-88
2022/01/09 09:50:43;;;;;;;13.45;2.50;;;5.90;99.90;;;;;;5028333;28;20124;-88
2022/01/09 09:53:08;;;;;;;15.60;2.40;;;6.00;99.90;;;;;;4997450;28;20121;-87
2022/01/09 09:55:34;;;;;;;14.77;2.97;;;6.00;99.90;;;;;;5008630;28;20068;-88
2022/01/09 09:57:59;;;;;;;11.13;2.25;;;6.00;99.90;;;;;;5005511;28;20523;-88
2022/01/09 10:00:25;;;;;;;12.43;2.20;;;6.00;99.90;;;;;;4979469;28;20034;-88
2022/01/09 10:02:54;;;;;;;13.27;2.38;;;6.00;99.90;;;;;;4987059;28;20046;-88
2022/01/09 10:05:23;;;;;;;12.23;2.55;;;6.00;99.90;;;;;;5016297;28;20626;-88
2022/01/09 10:07:53;;;;;;;16.02;2.97;;;6.00;99.90;;;;;;5002718;28;20049;-88
2022/01/09 10:10:22;;;;;;;10.20;2.08;;;6.10;99.90;;;;;;4997923;28;20089;-88
2022/01/09 10:12:48;;;;;;;15.00;2.72;;;6.10;99.90;;;;;;5000132;28;20043;-88
2022/01/09 10:15:18;;;;;;;16.23;2.75;;;6.10;99.90;;;;;;4992941;28;20034;-87
2022/01/09 10:17:49;;;;;;;13.00;2.53;;;6.10;99.90;;;;;;5013475;28;20038;-88
2022/01/09 10:20:24;;;;;;;10.07;2.22;;;6.10;99.90;;;;;;4992504;28;20068;-88
2022/01/09 10:22:55;;;;;;;12.48;2.60;;;6.10;99.90;;;;;;4991710;28;20042;-88
2022/01/09 10:25:20;;;;;;;14.73;2.95;;;6.10;99.90;;;;;;5000376;28;20089;-88
2022/01/09 10:27:48;;;;;;;12.98;2.35;;;6.20;99.90;;;;;;4984725;28;20455;-88
2022/01/09 10:30:14;;;;;;;19.40;3.13;;;6.10;99.90;;;;;;5001403;28;20034;-88
2022/01/09 10:32:40;;;;;;;17.30;2.75;;;6.20;99.90;;;;;;4985481;28;20035;-87
2022/01/09 10:35:17;;;;;;;12.32;3.00;;;6.20;99.90;;;;;;4995616;28;20049;-87
2022/01/09 10:37:45;;;;;;;16.77;3.08;;;6.20;99.90;;;;;;4975523;28;20041;-87
2022/01/09 10:40:19;;;;;;;13.13;2.85;;;6.20;99.90;;;;;;4976070;28;20419;-88
2022/01/09 10:42:59;;;;;;;13.57;2.80;;;6.30;99.90;;;;;;5010504;28;20056;-88
2022/01/09 10:45:25;;;;;;;22.13;2.88;;;6.30;99.90;;;;;;4994302;28;20523;-88
2022/01/09 10:47:55;;;;;;;14.68;2.65;;;6.30;99.90;;;;;;5005622;28;20038;-88
2022/01/09 10:50:29;;;;;;;11.70;2.40;;;6.30;99.90;;;;;;4981604;28;20093;-88
2022/01/09 10:53:17;;;;;;;14.82;2.45;;;6.40;99.90;;;;;;5001027;28;20732;-87
2022/01/09 10:56:01;;;;;;;11.70;2.30;;;6.40;99.90;;;;;;4994107;28;20036;-88
2022/01/09 10:58:28;;;;;;;13.27;2.17;;;6.40;99.90;;;;;;5017698;28;20042;-87
2022/01/09 11:01:12;;;;;;;15.40;2.50;;;6.40;99.90;;;;;;4985481;28;20068;-88
2022/01/09 11:03:44;;;;;;;11.48;2.20;;;6.50;99.90;;;;;;4982939;28;20045;-88
2022/01/09 11:06:10;;;;;;;12.98;2.92;;;6.40;99.90;;;;;;4991853;28;20081;-88
2022/01/09 11:08:37;;;;;;;21.65;4.25;;;6.50;99.90;;;;;;5004414;28;20034;-87
2022/01/09 11:11:08;;;;;;;17.77;3.30;;;6.50;99.90;;;;;;5025790;28;20045;-88
2022/01/09 11:13:37;;;;;;;15.88;2.85;;;6.50;99.90;;;;;;5002793;28;20088;-87
2022/01/09 11:18:47;;;;;;;12.52;3.03;;;6.80;99.90;;;;;;5004644;28;20511;-88
2022/01/09 11:21:13;;;;;;;14.15;2.72;;;6.90;99.90;;;;;;4992374;28;20042;-87
2022/01/09 11:24:16;;;;;;;12.75;2.63;;;7.00;99.90;;;;;;4974871;28;20049;-88
2022/01/09 11:26:53;;;;;;;12.60;2.13;;;7.10;99.90;;;;;;4980349;28;20069;-87
2022/01/09 11:30:03;;;;;;;12.85;2.85;;;7.20;99.90;;;;;;4991400;28;20105;-87
2022/01/09 11:32:37;;;;;;;12.68;2.15;;;7.40;99.90;;;;;;4990150;28;20059;-87
2022/01/09 11:35:46;;;;;;;15.55;2.83;;;7.40;99.90;;;;;;4998009;28;20100;-88
2022/01/09 11:38:23;;;;;;;15.93;3.25;;;7.50;99.90;;;;;;5001062;28;20042;-87
2022/01/09 11:40:49;;;;;;;19.95;3.55;;;7.50;99.90;;;;;;4980463;28;20046;-87
2022/01/09 11:43:17;;;;;;;23.55;4.13;;;7.50;99.90;;;;;;4997360;28;20096;-88
2022/01/09 11:45:50;;;;;;;14.20;3.15;;;7.50;99.90;;;;;;4986131;28;20514;-88
2022/01/09 11:48:41;;;;;;;16.83;3.08;;;7.60;99.90;;;;;;4985248;28;20081;-88
2022/01/09 11:51:06;;;;;;;15.82;2.78;;;7.60;99.90;;;;;;4990132;28;20038;-88
2022/01/09 11:54:03;;;;;;;12.27;2.70;;;7.70;99.90;;;;;;5000763;28;20050;-89
2022/01/09 11:56:41;;;;;;;14.45;3.30;;;7.70;99.90;;;;;;5002162;28;20069;-88
2022/01/09 11:59:23;;;;;;;20.58;3.25;;;7.70;99.90;;;;;;4993771;28;20073;-87
2022/01/09 12:01:50;;;;;;;16.10;2.78;;;7.70;99.90;;;;;;4986408;28;20041;-88
2022/01/09 12:04:31;;;;;;;13.15;2.92;;;7.70;99.90;;;;;;4992400;28;20503;-87
2022/01/09 12:06:58;;;;;;;16.77;2.97;;;7.60;99.90;;;;;;4985947;28;20511;-88
2022/01/09 12:09:37;;;;;;;18.33;3.17;;;7.60;99.90;;;;;;4993042;28;20128;-88
2022/01/09 12:12:03;;;;;;;14.30;2.55;;;7.70;99.90;;;;;;4993385;28;20037;-87
2022/01/09 12:15:03;;;;;;;15.13;2.80;;;7.80;99.90;;;;;;5023913;28;20129;-87
2022/01/09 12:17:39;;;;;;;14.60;3.03;;;8.00;99.90;;;;;;4981567;28;20045;-88
2022/01/09 12:20:14;;;;;;;15.32;2.50;;;8.30;99.90;;;;;;5003280;28;20121;-88
2022/01/09 12:22:43;;;;;;;16.77;3.03;;;8.40;99.90;;;;;;4984657;28;20077;-87
2022/01/09 12:25:12;;;;;;;13.45;2.97;;;8.40;99.90;;;;;;4992431;28;20042;-88
2022/01/09 12:27:42;;;;;;;13.93;3.00;;;8.60;99.90;;;;;;5019205;28;20043;-88
2022/01/09 12:30:11;;;;;;;13.23;2.92;;;8.70;99.90;;;;;;4992192;28;20048;-87
2022/01/09 12:32:41;;;;;;;12.32;2.50;;;9.30;99.90;;;;;;4981448;28;20042;-88
2022/01/09 12:35:18;;;;;;;15.80;3.70;;;10.00;99.90;;;;;;5021888;28;20039;-88
2022/01/09 12:37:55;;;;;;;14.45;2.97;;;10.70;99.90;;;;;;5005807;28;20038;-88
2022/01/09 12:40:25;;;;;;;14.13;3.15;;;11.20;99.90;;;;;;4992205;28;20049;-88
2022/01/09 12:42:55;;;;;;;14.13;2.60;;;11.10;99.90;;;;;;5008517;28;20148;-88
2022/01/09 12:45:43;;;;;;;16.58;3.55;;;11.00;99.90;;;;;;4992068;28;20041;-88
2022/01/09 12:48:20;;;;;;;15.13;3.17;;;11.00;99.90;;;;;;5009351;28;20045;-89
2022/01/09 12:50:48;;;;;;;16.23;3.78;;;11.20;99.90;;;;;;5007714;28;20088;-88
2022/01/09 12:53:29;;;;;;;15.00;3.25;;;11.40;99.90;;;;;;4989452;28;20038;-88
2022/01/09 12:56:04;;;;;;;14.20;2.83;;;10.90;98.60;;;;;;5021304;28;20100;-89